createdAt,value
2022-09-20T00:00:21.883Z,0.00
2022-09-20T00:01:22.067Z,0.00
2022-09-20T00:02:21.889Z,0.00
2022-09-20T00:03:21.853Z,0.00
2022-09-20T00:04:21.838Z,0.00
2022-09-20T00:05:21.875Z,0.00
2022-09-20T00:06:21.816Z,0.00
2022-09-20T00:07:21.832Z,0.00
2022-09-20T00:08:21.801Z,0.00
2022-09-20T00:09:21.793Z,0.00
2022-09-20T00:10:21.779Z,0.00
2022-09-20T00:11:21.774Z,0.00
2022-09-20T00:12:21.777Z,0.00
2022-09-20T00:13:21.753Z,0.00
2022-09-20T00:14:21.742Z,0.00
2022-09-20T00:15:21.728Z,0.00
2022-09-20T00:16:21.782Z,0.00
2022-09-20T00:17:21.733Z,0.00
2022-09-20T00:18:21.690Z,0.00
2022-09-20T00:19:21.686Z,0.00
2022-09-20T00:20:21.667Z,0.00
2022-09-20T00:21:21.659Z,0.00
2022-09-20T00:22:21.670Z,0.00
2022-09-20T00:23:21.646Z,0.00
2022-09-20T00:24:21.634Z,0.00
2022-09-20T00:25:21.621Z,0.00
2022-09-20T00:26:21.603Z,0.00
2022-09-20T00:27:21.612Z,0.00
2022-09-20T00:28:21.580Z,0.00
2022-09-20T00:29:21.576Z,0.00
2022-09-20T00:30:21.570Z,0.00
2022-09-20T00:31:21.658Z,0.00
2022-09-20T00:32:21.560Z,0.00
2022-09-20T00:33:21.537Z,0.00
2022-09-20T00:34:21.526Z,0.00
2022-09-20T00:35:21.510Z,0.00
2022-09-20T00:36:21.500Z,0.00
2022-09-20T00:37:21.508Z,0.00
2022-09-20T00:38:21.486Z,0.00
2022-09-20T00:39:21.486Z,0.00
2022-09-20T00:40:21.527Z,0.00
2022-09-20T00:41:21.447Z,0.00
2022-09-20T00:42:21.468Z,0.00
2022-09-20T00:43:21.436Z,0.00
2022-09-20T00:44:21.425Z,0.00
2022-09-20T00:45:21.405Z,0.00
2022-09-20T00:46:21.450Z,0.00
2022-09-20T00:47:21.403Z,0.00
2022-09-20T00:48:21.377Z,0.00
2022-09-20T00:49:21.369Z,0.00
2022-09-20T00:50:21.344Z,0.00
2022-09-20T00:51:21.345Z,0.00
2022-09-20T00:52:21.349Z,0.00
2022-09-20T00:53:21.324Z,0.00
2022-09-20T00:54:21.311Z,0.00
2022-09-20T00:55:21.316Z,0.00
2022-09-20T00:56:21.290Z,0.00
2022-09-20T00:57:21.305Z,0.00
2022-09-20T00:58:21.272Z,0.00
2022-09-20T00:59:21.253Z,0.00
2022-09-20T01:00:21.238Z,0.00
2022-09-20T01:01:21.351Z,0.00
2022-09-20T01:02:21.332Z,0.00
2022-09-20T01:03:21.214Z,0.00
2022-09-20T01:04:21.203Z,0.00
2022-09-20T01:05:21.195Z,0.00
2022-09-20T01:06:21.191Z,0.00
2022-09-20T01:07:21.183Z,0.00
2022-09-20T01:08:21.152Z,0.00
2022-09-20T01:09:21.148Z,0.00
2022-09-20T01:10:21.137Z,0.00
2022-09-20T01:11:21.113Z,0.00
2022-09-20T01:12:21.120Z,0.00
2022-09-20T01:13:21.105Z,0.00
2022-09-20T01:14:21.079Z,0.00
2022-09-20T01:15:21.076Z,0.00
2022-09-20T01:16:21.127Z,0.00
2022-09-20T01:17:21.072Z,0.00
2022-09-20T01:18:21.047Z,0.00
2022-09-20T01:19:21.067Z,0.00
2022-09-20T01:20:21.027Z,0.00
2022-09-20T01:21:21.014Z,0.00
2022-09-20T01:22:21.031Z,0.00
2022-09-20T01:23:21.034Z,0.00
2022-09-20T01:24:20.987Z,0.00
2022-09-20T01:25:20.964Z,0.00
2022-09-20T01:26:20.967Z,0.00
2022-09-20T01:27:20.969Z,0.00
2022-09-20T01:28:20.946Z,0.00
2022-09-20T01:29:20.934Z,0.00
2022-09-20T01:30:20.914Z,0.00
2022-09-20T01:31:20.961Z,0.00
2022-09-20T01:32:20.900Z,0.00
2022-09-20T01:33:20.890Z,0.00
2022-09-20T01:34:20.879Z,0.00
2022-09-20T01:35:20.861Z,0.00
2022-09-20T01:36:20.855Z,0.00
2022-09-20T01:37:20.856Z,0.00
2022-09-20T01:38:20.824Z,0.00
2022-09-20T01:39:20.838Z,0.00
2022-09-20T01:40:20.858Z,0.00
2022-09-20T01:41:20.799Z,0.00
2022-09-20T01:42:20.808Z,0.00
2022-09-20T01:43:20.779Z,0.00
2022-09-20T01:44:20.767Z,0.00
2022-09-20T01:45:20.760Z,0.00
2022-09-20T01:46:20.873Z,0.00
2022-09-20T01:47:20.742Z,0.00
2022-09-20T01:48:20.729Z,0.00
2022-09-20T01:49:20.714Z,0.00
2022-09-20T01:50:20.703Z,0.00
2022-09-20T01:51:20.697Z,0.00
2022-09-20T01:52:20.703Z,0.00
2022-09-20T01:53:20.661Z,0.00
2022-09-20T01:54:20.665Z,0.00
2022-09-20T01:55:20.647Z,0.00
2022-09-20T01:56:20.654Z,0.00
2022-09-20T01:57:25.055Z,0.00
2022-09-20T01:58:20.641Z,0.00
2022-09-20T01:59:24.004Z,0.00
2022-09-20T02:00:20.587Z,0.00
2022-09-20T02:01:20.643Z,0.00
2022-09-20T02:02:20.600Z,0.00
2022-09-20T02:03:20.583Z,0.00
2022-09-20T02:04:20.560Z,0.00
2022-09-20T02:05:20.535Z,0.00
2022-09-20T02:06:20.532Z,0.00
2022-09-20T02:07:20.511Z,0.00
2022-09-20T02:08:20.528Z,0.00
2022-09-20T02:09:20.488Z,0.00
2022-09-20T02:10:20.482Z,0.00
2022-09-20T02:11:20.478Z,0.00
2022-09-20T02:12:20.474Z,0.00
2022-09-20T02:13:20.465Z,0.00
2022-09-20T02:14:20.475Z,0.00
2022-09-20T02:15:20.445Z,0.00
2022-09-20T02:16:20.463Z,0.00
2022-09-20T02:17:20.417Z,0.00
2022-09-20T02:18:20.405Z,0.00
2022-09-20T02:19:20.407Z,0.00
2022-09-20T02:20:20.371Z,0.00
2022-09-20T02:21:20.370Z,0.00
2022-09-20T02:22:20.349Z,0.00
2022-09-20T02:23:20.365Z,0.00
2022-09-20T02:24:20.326Z,0.00
2022-09-20T02:25:20.330Z,0.00
2022-09-20T02:26:20.314Z,0.00
2022-09-20T02:27:20.300Z,0.00
2022-09-20T02:28:20.298Z,0.00
2022-09-20T02:29:20.281Z,0.00
2022-09-20T02:30:20.267Z,0.00
2022-09-20T02:31:20.323Z,0.00
2022-09-20T02:32:20.244Z,0.00
2022-09-20T02:33:20.255Z,0.00
2022-09-20T02:34:20.228Z,0.00
2022-09-20T02:35:20.217Z,0.00
2022-09-20T02:36:20.199Z,0.00
2022-09-20T02:37:20.181Z,0.00
2022-09-20T02:38:20.195Z,0.00
2022-09-20T02:39:20.172Z,0.00
2022-09-20T02:40:20.258Z,0.00
2022-09-20T02:41:20.159Z,0.00
2022-09-20T02:42:20.135Z,0.00
2022-09-20T02:43:20.148Z,0.00
2022-09-20T02:44:20.119Z,0.00
2022-09-20T02:45:20.105Z,0.00
2022-09-20T02:46:20.127Z,0.00
2022-09-20T02:47:20.084Z,0.00
2022-09-20T02:48:20.084Z,0.00
2022-09-20T02:49:20.066Z,0.00
2022-09-20T02:50:20.056Z,0.00
2022-09-20T02:51:20.040Z,0.00
2022-09-20T02:52:20.027Z,0.00
2022-09-20T02:53:20.033Z,0.00
2022-09-20T02:54:19.998Z,0.00
2022-09-20T02:55:19.996Z,0.00
2022-09-20T02:56:19.969Z,0.00
2022-09-20T02:57:19.971Z,0.00
2022-09-20T02:58:19.969Z,0.00
2022-09-20T02:59:19.945Z,0.00
2022-09-20T03:00:19.925Z,0.00
2022-09-20T03:01:20.016Z,0.00
2022-09-20T03:02:20.007Z,0.00
2022-09-20T03:03:19.927Z,0.00
2022-09-20T03:04:19.897Z,0.00
2022-09-20T03:05:19.878Z,0.00
2022-09-20T03:06:19.872Z,0.00
2022-09-20T03:07:19.859Z,0.00
2022-09-20T03:08:19.863Z,0.00
2022-09-20T03:09:19.837Z,0.00
2022-09-20T03:10:19.830Z,0.00
2022-09-20T03:11:19.832Z,0.00
2022-09-20T03:12:19.806Z,0.00
2022-09-20T03:13:19.813Z,0.00
2022-09-20T03:14:19.789Z,0.00
2022-09-20T03:15:19.770Z,0.00
2022-09-20T03:16:19.861Z,0.00
2022-09-20T03:17:19.754Z,0.00
2022-09-20T03:18:19.766Z,0.00
2022-09-20T03:19:19.736Z,0.00
2022-09-20T03:20:19.730Z,0.00
2022-09-20T03:21:19.713Z,0.00
2022-09-20T03:22:19.686Z,0.00
2022-09-20T03:23:19.722Z,0.00
2022-09-20T03:24:19.676Z,0.00
2022-09-20T03:25:19.662Z,0.00
2022-09-20T03:26:19.660Z,0.00
2022-09-20T03:27:19.641Z,0.00
2022-09-20T03:28:19.645Z,0.00
2022-09-20T03:29:19.611Z,0.00
2022-09-20T03:30:19.607Z,0.00
2022-09-20T03:31:19.652Z,0.00
2022-09-20T03:32:19.604Z,0.00
2022-09-20T03:33:19.596Z,0.00
2022-09-20T03:34:19.562Z,0.00
2022-09-20T03:35:19.553Z,0.00
2022-09-20T03:36:19.555Z,0.00
2022-09-20T03:37:19.533Z,0.00
2022-09-20T03:38:19.542Z,0.00
2022-09-20T03:39:19.517Z,0.00
2022-09-20T03:40:19.563Z,0.00
2022-09-20T03:41:19.485Z,0.00
2022-09-20T03:42:19.473Z,0.00
2022-09-20T03:43:19.490Z,0.00
2022-09-20T03:44:19.457Z,0.00
2022-09-20T03:45:19.454Z,0.00
2022-09-20T03:46:19.537Z,0.00
2022-09-20T03:47:19.419Z,0.00
2022-09-20T03:48:19.435Z,0.00
2022-09-20T03:49:19.405Z,0.00
2022-09-20T03:50:19.399Z,0.00
2022-09-20T03:51:19.381Z,0.00
2022-09-20T03:52:19.370Z,0.00
2022-09-20T03:53:19.376Z,0.00
2022-09-20T03:54:19.354Z,0.00
2022-09-20T03:55:19.333Z,0.00
2022-09-20T03:56:19.329Z,0.00
2022-09-20T03:57:19.312Z,0.00
2022-09-20T03:58:19.311Z,0.00
2022-09-20T03:59:19.307Z,0.00
2022-09-20T04:00:19.282Z,0.00
2022-09-20T04:01:19.408Z,0.00
2022-09-20T04:02:19.278Z,0.00
2022-09-20T04:03:19.277Z,0.00
2022-09-20T04:04:19.246Z,0.00
2022-09-20T04:05:19.224Z,0.00
2022-09-20T04:06:19.215Z,0.00
2022-09-20T04:07:19.206Z,0.00
2022-09-20T04:08:19.210Z,0.00
2022-09-20T04:09:19.182Z,0.00
2022-09-20T04:10:19.176Z,0.00
2022-09-20T04:11:19.158Z,0.00
2022-09-20T04:12:19.139Z,0.00
2022-09-20T04:13:19.160Z,0.00
2022-09-20T04:14:19.128Z,0.00
2022-09-20T04:15:19.119Z,0.00
2022-09-20T04:16:19.154Z,0.00
2022-09-20T04:17:19.098Z,0.00
2022-09-20T04:18:19.102Z,0.00
2022-09-20T04:19:19.072Z,0.00
2022-09-20T04:20:19.061Z,0.00
2022-09-20T04:21:19.051Z,0.00
2022-09-20T04:22:19.033Z,0.00
2022-09-20T04:23:19.048Z,0.00
2022-09-20T04:24:19.010Z,0.00
2022-09-20T04:25:19.013Z,0.00
2022-09-20T04:26:18.990Z,0.00
2022-09-20T04:27:18.976Z,0.00
2022-09-20T04:28:18.990Z,0.00
2022-09-20T04:29:18.958Z,0.00
2022-09-20T04:30:18.942Z,0.00
2022-09-20T04:31:20.861Z,0.00
2022-09-20T04:32:18.971Z,0.00
2022-09-20T04:33:18.937Z,4.00
2022-09-20T04:34:18.907Z,4.00
2022-09-20T04:35:18.899Z,0.00
2022-09-20T04:36:18.890Z,0.00
2022-09-20T04:37:18.868Z,4.00
2022-09-20T04:38:18.892Z,4.00
2022-09-20T04:39:18.855Z,4.00
2022-09-20T04:40:18.923Z,4.00
2022-09-20T04:41:18.833Z,4.00
2022-09-20T04:42:18.818Z,4.00
2022-09-20T04:43:18.810Z,4.00
2022-09-20T04:44:18.832Z,12.00
2022-09-20T04:45:18.782Z,8.00
2022-09-20T04:46:18.782Z,12.00
2022-09-20T04:47:18.765Z,16.00
2022-09-20T04:48:18.761Z,16.00
2022-09-20T04:49:18.773Z,20.00
2022-09-20T04:50:18.736Z,20.00
2022-09-20T04:51:18.714Z,24.00
2022-09-20T04:52:18.706Z,28.00
2022-09-20T04:53:18.705Z,36.00
2022-09-20T04:54:18.690Z,40.00
2022-09-20T04:55:18.693Z,44.00
2022-09-20T04:56:18.657Z,48.00
2022-09-20T04:57:18.644Z,56.00
2022-09-20T04:58:18.643Z,64.00
2022-09-20T04:59:18.642Z,72.00
2022-09-20T05:00:18.620Z,80.00
2022-09-20T05:01:18.684Z,88.00
2022-09-20T05:02:18.651Z,100.00
2022-09-20T05:03:18.585Z,108.00
2022-09-20T05:04:18.592Z,116.00
2022-09-20T05:05:18.583Z,128.00
2022-09-20T05:06:18.551Z,140.00
2022-09-20T05:07:18.541Z,152.00
2022-09-20T05:08:18.532Z,164.00
2022-09-20T05:09:18.542Z,172.00
2022-09-20T05:10:25.062Z,188.00
2022-09-20T05:11:18.491Z,200.00
2022-09-20T05:12:18.479Z,208.00
2022-09-20T05:13:18.473Z,228.00
2022-09-20T05:14:18.545Z,248.00
2022-09-20T05:15:18.453Z,260.00
2022-09-20T05:16:18.515Z,280.00
2022-09-20T05:17:18.468Z,296.00
2022-09-20T05:18:18.417Z,312.00
2022-09-20T05:19:18.452Z,332.00
2022-09-20T05:20:18.404Z,360.00
2022-09-20T05:21:18.385Z,376.00
2022-09-20T05:22:18.381Z,396.00
2022-09-20T05:23:18.374Z,412.00
2022-09-20T05:24:18.366Z,428.00
2022-09-20T05:25:18.352Z,448.00
2022-09-20T05:26:18.346Z,460.00
2022-09-20T05:27:18.319Z,476.00
2022-09-20T05:28:18.317Z,492.00
2022-09-20T05:29:18.323Z,516.00
2022-09-20T05:30:18.297Z,540.00
2022-09-20T05:31:18.338Z,564.00
2022-09-20T05:32:18.267Z,572.00
2022-09-20T05:33:18.275Z,572.00
2022-09-20T05:34:18.293Z,588.00
2022-09-20T05:35:18.244Z,604.00
2022-09-20T05:36:18.236Z,620.00
2022-09-20T05:37:18.213Z,636.00
2022-09-20T05:38:18.229Z,664.00
2022-09-20T05:39:18.214Z,696.00
2022-09-20T05:40:18.265Z,728.00
2022-09-20T05:41:18.181Z,744.00
2022-09-20T05:42:18.159Z,740.00
2022-09-20T05:43:18.158Z,724.00
2022-09-20T05:44:18.170Z,728.00
2022-09-20T05:45:18.135Z,740.00
2022-09-20T05:46:18.133Z,748.00
2022-09-20T05:47:18.114Z,760.00
2022-09-20T05:48:18.111Z,764.00
2022-09-20T05:49:18.102Z,772.00
2022-09-20T05:50:18.115Z,780.00
2022-09-20T05:51:18.059Z,784.00
2022-09-20T05:52:18.087Z,788.00
2022-09-20T05:53:18.039Z,796.00
2022-09-20T05:54:18.044Z,808.00
2022-09-20T05:55:18.029Z,820.00
2022-09-20T05:56:18.000Z,840.00
2022-09-20T05:57:17.987Z,848.00
2022-09-20T05:58:18.001Z,860.00
2022-09-20T05:59:18.003Z,868.00
2022-09-20T06:00:17.972Z,876.00
2022-09-20T06:01:18.025Z,888.00
2022-09-20T06:02:17.997Z,896.00
2022-09-20T06:03:17.948Z,904.00
2022-09-20T06:04:17.936Z,916.00
2022-09-20T06:05:17.933Z,924.00
2022-09-20T06:06:17.894Z,928.00
2022-09-20T06:07:17.996Z,936.00
2022-09-20T06:08:17.876Z,944.00
2022-09-20T06:09:18.024Z,952.00
2022-09-20T06:10:17.884Z,960.00
2022-09-20T06:11:17.901Z,968.00
2022-09-20T06:12:17.825Z,976.00
2022-09-20T06:13:17.918Z,980.00
2022-09-20T06:14:17.823Z,992.00
2022-09-20T06:15:17.896Z,996.00
2022-09-20T06:16:17.835Z,1004.00
2022-09-20T06:17:17.862Z,1008.00
2022-09-20T06:18:17.758Z,1012.00
2022-09-20T06:19:17.824Z,1020.00
2022-09-20T06:20:17.749Z,1028.00
2022-09-20T06:21:17.727Z,1028.00
2022-09-20T06:22:17.721Z,1036.00
2022-09-20T06:23:17.757Z,1040.00
2022-09-20T06:24:17.718Z,1044.00
2022-09-20T06:25:17.701Z,1048.00
2022-09-20T06:26:17.676Z,1056.00
2022-09-20T06:27:17.685Z,1064.00
2022-09-20T06:28:17.651Z,1072.00
2022-09-20T06:29:17.687Z,1076.00
2022-09-20T06:30:17.633Z,1080.00
2022-09-20T06:31:17.631Z,1088.00
2022-09-20T06:32:17.607Z,1092.00
2022-09-20T06:33:17.602Z,1100.00
2022-09-20T06:34:17.604Z,1108.00
2022-09-20T06:35:17.594Z,1112.00
2022-09-20T06:36:17.595Z,1116.00
2022-09-20T06:37:17.560Z,1124.00
2022-09-20T06:38:17.555Z,1124.00
2022-09-20T06:39:17.561Z,1128.00
2022-09-20T06:40:17.604Z,1128.00
2022-09-20T06:41:17.522Z,1136.00
2022-09-20T06:42:17.521Z,1144.00
2022-09-20T06:43:17.497Z,1148.00
2022-09-20T06:44:17.496Z,1152.00
2022-09-20T06:45:17.481Z,1160.00
2022-09-20T06:46:17.554Z,1160.00
2022-09-20T06:47:17.535Z,1168.00
2022-09-20T06:48:17.441Z,1168.00
2022-09-20T06:49:17.452Z,1172.00
2022-09-20T06:50:17.441Z,1180.00
2022-09-20T06:51:17.410Z,1156.00
2022-09-20T06:52:17.410Z,1196.00
2022-09-20T06:53:17.430Z,1180.00
2022-09-20T06:54:17.404Z,1204.00
2022-09-20T06:55:17.381Z,1208.00
2022-09-20T06:56:17.402Z,1220.00
2022-09-20T06:57:17.361Z,1244.00
2022-09-20T06:58:17.343Z,1304.00
2022-09-20T06:59:17.365Z,1280.00
2022-09-20T07:00:17.314Z,1260.00
2022-09-20T07:01:29.079Z,1252.00
2022-09-20T07:02:17.344Z,1256.00
2022-09-20T07:03:17.299Z,1264.00
2022-09-20T07:04:17.278Z,1268.00
2022-09-20T07:05:17.248Z,1264.00
2022-09-20T07:06:17.237Z,1268.00
2022-09-20T07:07:17.292Z,1272.00
2022-09-20T07:08:17.223Z,1272.00
2022-09-20T07:09:17.241Z,1276.00
2022-09-20T07:10:17.198Z,1280.00
2022-09-20T07:11:17.202Z,1280.00
2022-09-20T07:12:17.193Z,1284.00
2022-09-20T07:13:17.261Z,1296.00
2022-09-20T07:14:17.181Z,1300.00
2022-09-20T07:15:17.181Z,1312.00
2022-09-20T07:16:17.266Z,1324.00
2022-09-20T07:17:17.146Z,1336.00
2022-09-20T07:18:17.109Z,1344.00
2022-09-20T07:19:17.154Z,1344.00
2022-09-20T07:20:21.225Z,1348.00
2022-09-20T07:21:17.081Z,1348.00
2022-09-20T07:22:17.066Z,1344.00
2022-09-20T07:23:17.078Z,1344.00
2022-09-20T07:24:17.050Z,1344.00
2022-09-20T07:25:17.035Z,1344.00
2022-09-20T07:26:17.020Z,1340.00
2022-09-20T07:27:17.012Z,1344.00
2022-09-20T07:28:17.011Z,1344.00
2022-09-20T07:29:17.043Z,1352.00
2022-09-20T07:30:17.002Z,1356.00
2022-09-20T07:31:17.037Z,1352.00
2022-09-20T07:32:16.962Z,1360.00
2022-09-20T07:33:16.951Z,1368.00
2022-09-20T07:34:16.979Z,1372.00
2022-09-20T07:35:16.940Z,1380.00
2022-09-20T07:36:16.910Z,1380.00
2022-09-20T07:37:16.907Z,1384.00
2022-09-20T07:38:16.883Z,1380.00
2022-09-20T07:39:16.917Z,1376.00
2022-09-20T07:40:16.919Z,1372.00
2022-09-20T07:41:16.858Z,1384.00
2022-09-20T07:42:16.845Z,1392.00
2022-09-20T07:43:16.854Z,1400.00
2022-09-20T07:44:16.838Z,1404.00
2022-09-20T07:45:16.842Z,1408.00
2022-09-20T07:46:16.801Z,1420.00
2022-09-20T07:47:16.791Z,1424.00
2022-09-20T07:48:16.791Z,1428.00
2022-09-20T07:49:16.794Z,1436.00
2022-09-20T07:50:16.766Z,1452.00
2022-09-20T07:51:16.749Z,1460.00
2022-09-20T07:52:16.751Z,1476.00
2022-09-20T07:53:16.758Z,1492.00
2022-09-20T07:54:16.729Z,1512.00
2022-09-20T07:55:16.699Z,1536.00
2022-09-20T07:56:16.684Z,1564.00
2022-09-20T07:57:16.708Z,1592.00
2022-09-20T07:58:16.660Z,1620.00
2022-09-20T07:59:16.681Z,1664.00
2022-09-20T08:00:16.651Z,1720.00
2022-09-20T08:01:16.664Z,1784.00
2022-09-20T08:02:16.753Z,1828.00
2022-09-20T08:03:16.611Z,1880.00
2022-09-20T08:04:16.644Z,1920.00
2022-09-20T08:05:16.609Z,1972.00
2022-09-20T08:06:16.576Z,2004.00
2022-09-20T08:07:16.568Z,2048.00
2022-09-20T08:08:16.562Z,2092.00
2022-09-20T08:09:16.570Z,2120.00
2022-09-20T08:10:16.535Z,2136.00
2022-09-20T08:11:16.532Z,2172.00
2022-09-20T08:14:16.725Z,2292.00
2022-09-20T08:15:16.486Z,2364.00
2022-09-20T08:16:16.528Z,2528.00
2022-09-20T08:17:16.467Z,2564.00
2022-09-20T08:18:16.457Z,2640.00
2022-09-20T08:19:16.456Z,2664.00
2022-09-20T08:20:16.432Z,2764.00
2022-09-20T08:21:16.424Z,2856.00
2022-09-20T08:22:16.407Z,2836.00
2022-09-20T08:23:24.236Z,2928.00
2022-09-20T08:24:16.475Z,2980.00
2022-09-20T08:25:16.378Z,3036.00
2022-09-20T08:26:16.364Z,3096.00
2022-09-20T08:27:16.351Z,3104.00
2022-09-20T08:28:16.349Z,1388.00
2022-09-20T08:29:16.347Z,3084.00
2022-09-20T08:30:16.325Z,3048.00
2022-09-20T08:31:16.359Z,3012.00
2022-09-20T08:32:16.304Z,2996.00
2022-09-20T08:33:16.286Z,2988.00
2022-09-20T08:34:16.297Z,2924.00
2022-09-20T08:35:16.265Z,2868.00
2022-09-20T08:36:16.253Z,2804.00
2022-09-20T08:37:16.242Z,2740.00
2022-09-20T08:40:16.263Z,2608.00
2022-09-20T08:41:16.196Z,2608.00
2022-09-20T08:42:16.184Z,2552.00
2022-09-20T08:43:21.995Z,2512.00
2022-09-20T08:44:16.201Z,2504.00
2022-09-20T08:45:33.805Z,2496.00
2022-09-20T08:46:16.209Z,2476.00
2022-09-20T08:47:16.133Z,2504.00
2022-09-20T08:48:16.124Z,2396.00
2022-09-20T08:49:16.120Z,1588.00
2022-09-20T08:50:17.929Z,1612.00
2022-09-20T08:51:22.638Z,1860.00
2022-09-20T08:52:16.076Z,2332.00
2022-09-20T08:53:21.476Z,1836.00
2022-09-20T08:54:16.071Z,2540.00
2022-09-20T08:55:16.046Z,2628.00
2022-09-20T08:56:16.044Z,2772.00
2022-09-20T08:57:16.027Z,2980.00
2022-09-20T08:58:16.007Z,2824.00
2022-09-20T08:59:16.014Z,3160.00
2022-09-20T09:00:15.998Z,3736.00
2022-09-20T09:01:16.012Z,3552.00
2022-09-20T09:02:16.009Z,3480.00
2022-09-20T09:03:15.953Z,3568.00
2022-09-20T09:04:15.963Z,3940.00
2022-09-20T09:05:15.936Z,3612.00
2022-09-20T09:06:18.459Z,4252.00
2022-09-20T09:07:15.910Z,4616.00
2022-09-20T09:08:15.902Z,4984.00
2022-09-20T09:09:15.912Z,5044.00
2022-09-20T09:10:15.875Z,4900.00
2022-09-20T09:11:15.866Z,4700.00
2022-09-20T09:12:15.849Z,5000.00
2022-09-20T09:13:15.846Z,4964.00
2022-09-20T09:14:15.846Z,5452.00
2022-09-20T09:15:17.554Z,5456.00
2022-09-20T09:16:22.518Z,5144.00
2022-09-20T09:17:15.808Z,4820.00
2022-09-20T09:18:15.791Z,4716.00
2022-09-20T09:19:15.823Z,4624.00
2022-09-20T09:20:15.773Z,4372.00
2022-09-20T09:21:15.757Z,4064.00
2022-09-20T09:22:15.752Z,3904.00
2022-09-20T09:23:15.730Z,4308.00
2022-09-20T09:24:15.727Z,3612.00
2022-09-20T09:25:15.730Z,2912.00
2022-09-20T09:26:15.698Z,2772.00
2022-09-20T09:27:15.688Z,2980.00
2022-09-20T09:28:15.674Z,3672.00
2022-09-20T09:29:15.673Z,3872.00
2022-09-20T09:30:15.677Z,3764.00
2022-09-20T09:31:15.685Z,3564.00
2022-09-20T09:32:15.646Z,2840.00
2022-09-20T09:33:15.626Z,3352.00
2022-09-20T09:34:15.617Z,3376.00
2022-09-20T09:35:15.619Z,4072.00
2022-09-20T09:36:15.589Z,3168.00
2022-09-20T09:37:15.581Z,4324.00
2022-09-20T09:38:15.562Z,4440.00
2022-09-20T09:39:15.578Z,4580.00
2022-09-20T09:40:15.689Z,4648.00
2022-09-20T09:41:15.540Z,3896.00
2022-09-20T09:42:15.533Z,4928.00
2022-09-20T09:43:15.512Z,5160.00
2022-09-20T09:44:15.502Z,3412.00
2022-09-20T09:45:15.508Z,3560.00
2022-09-20T09:46:15.513Z,3792.00
2022-09-20T09:47:15.473Z,4868.00
2022-09-20T09:48:15.460Z,6120.00
2022-09-20T09:49:15.727Z,6272.00
2022-09-20T09:50:15.484Z,6388.00
2022-09-20T09:51:15.468Z,6420.00
2022-09-20T09:52:15.413Z,6464.00
2022-09-20T09:53:15.403Z,5704.00
2022-09-20T09:54:15.398Z,4972.00
2022-09-20T09:55:15.396Z,5720.00
2022-09-20T09:56:15.369Z,5876.00
2022-09-20T09:57:15.363Z,4952.00
2022-09-20T09:58:15.355Z,5136.00
2022-09-20T09:59:15.348Z,5600.00
2022-09-20T10:00:21.414Z,5452.00
2022-09-20T10:01:15.390Z,6436.00
2022-09-20T10:02:15.372Z,6356.00
2022-09-20T10:03:15.316Z,8116.00
2022-09-20T10:04:15.279Z,6084.00
2022-09-20T10:05:15.300Z,5428.00
2022-09-20T10:06:15.258Z,5500.00
2022-09-20T10:07:15.254Z,6108.00
2022-09-20T10:08:15.245Z,5880.00
2022-09-20T10:09:15.233Z,5480.00
2022-09-20T10:10:15.247Z,5108.00
2022-09-20T10:11:15.213Z,5168.00
2022-09-20T10:12:15.197Z,5048.00
2022-09-20T10:13:15.196Z,4908.00
2022-09-20T10:14:15.176Z,4916.00
2022-09-20T10:15:15.193Z,4764.00
2022-09-20T10:16:15.178Z,5092.00
2022-09-20T10:17:15.147Z,5044.00
2022-09-20T10:18:15.159Z,5224.00
2022-09-20T10:19:18.399Z,6652.00
2022-09-20T10:20:15.360Z,6200.00
2022-09-20T10:21:15.292Z,8252.00
2022-09-20T10:22:15.233Z,5096.00
2022-09-20T10:23:45.209Z,4640.00
2022-09-20T10:24:15.147Z,4152.00
2022-09-20T10:25:15.168Z,4072.00
2022-09-20T10:26:15.157Z,4324.00
2022-09-20T10:27:15.092Z,4608.00
2022-09-20T10:28:15.041Z,4436.00
2022-09-20T10:29:15.061Z,4456.00
2022-09-20T10:30:15.051Z,4600.00
2022-09-20T10:31:15.050Z,4432.00
2022-09-20T10:32:15.511Z,4144.00
2022-09-20T10:33:14.975Z,6708.00
2022-09-20T10:34:14.978Z,5520.00
2022-09-20T10:35:14.973Z,5840.00
2022-09-20T10:36:14.939Z,4100.00
2022-09-20T10:37:14.958Z,5540.00
2022-09-20T10:38:14.917Z,2940.00
2022-09-20T10:39:14.908Z,2812.00
2022-09-20T10:40:14.989Z,2532.00
2022-09-20T10:41:14.880Z,2600.00
2022-09-20T10:42:14.886Z,2636.00
2022-09-20T10:43:14.891Z,2636.00
2022-09-20T10:44:14.861Z,2656.00
2022-09-20T10:45:29.532Z,2764.00
2022-09-20T10:46:31.481Z,3048.00
2022-09-20T10:47:14.921Z,3432.00
2022-09-20T10:48:14.820Z,3788.00
2022-09-20T10:49:14.811Z,4060.00
2022-09-20T10:50:14.805Z,5776.00
2022-09-20T10:51:14.799Z,7068.00
2022-09-20T10:52:14.772Z,5040.00
2022-09-20T10:53:14.757Z,6924.00
2022-09-20T10:54:14.752Z,6904.00
2022-09-20T10:55:14.755Z,5512.00
2022-09-20T10:56:14.733Z,6484.00
2022-09-20T10:57:14.721Z,6028.00
2022-09-20T10:58:14.707Z,7060.00
2022-09-20T10:59:14.713Z,6712.00
2022-09-20T11:00:14.696Z,6724.00
2022-09-20T11:01:14.745Z,7284.00
2022-09-20T11:02:14.728Z,8768.00
2022-09-20T11:03:14.646Z,8712.00
2022-09-20T11:04:14.633Z,7984.00
2022-09-20T11:05:14.660Z,6916.00
2022-09-20T11:06:14.634Z,6380.00
2022-09-20T11:07:14.606Z,5720.00
2022-09-20T11:08:14.596Z,4372.00
2022-09-20T11:09:14.586Z,4732.00
2022-09-20T11:10:14.584Z,4072.00
2022-09-20T11:11:21.109Z,4212.00
2022-09-20T11:12:14.546Z,4396.00
2022-09-20T11:13:14.540Z,4596.00
2022-09-20T11:14:14.522Z,4860.00
2022-09-20T11:15:14.564Z,4916.00
2022-09-20T11:16:14.568Z,5032.00
2022-09-20T11:17:14.507Z,5236.00
2022-09-20T11:18:14.493Z,5280.00
2022-09-20T11:19:14.500Z,5392.00
2022-09-20T11:20:14.488Z,5760.00
2022-09-20T11:21:14.464Z,5944.00
2022-09-20T11:22:14.477Z,7488.00
2022-09-20T11:23:14.492Z,7596.00
2022-09-20T11:24:14.420Z,7620.00
2022-09-20T11:25:19.430Z,7252.00
2022-09-20T11:26:14.402Z,6084.00
2022-09-20T11:27:14.391Z,6100.00
2022-09-20T11:28:14.381Z,5944.00
2022-09-20T11:29:14.421Z,5032.00
2022-09-20T11:30:14.381Z,5012.00
2022-09-20T11:31:14.394Z,4144.00
2022-09-20T11:32:14.447Z,4156.00
2022-09-20T11:33:14.325Z,4760.00
2022-09-20T11:34:14.355Z,4268.00
2022-09-20T11:35:14.340Z,5716.00
2022-09-20T11:36:14.361Z,5888.00
2022-09-20T11:37:14.284Z,6140.00
2022-09-20T11:38:14.263Z,6432.00
2022-09-20T11:39:14.258Z,6560.00
2022-09-20T11:40:14.290Z,6760.00
2022-09-20T11:41:14.277Z,7096.00
2022-09-20T11:42:14.226Z,6468.00
2022-09-20T11:43:14.242Z,5156.00
2022-09-20T11:44:14.208Z,4480.00
2022-09-20T11:45:14.215Z,3772.00
2022-09-20T11:46:14.272Z,4512.00
2022-09-20T11:47:15.552Z,3456.00
2022-09-20T11:48:14.221Z,3200.00
2022-09-20T11:49:14.193Z,3260.00
2022-09-20T11:50:14.142Z,3276.00
2022-09-20T11:51:14.135Z,4900.00
2022-09-20T11:52:14.129Z,4872.00
2022-09-20T11:53:14.096Z,4816.00
2022-09-20T11:54:14.088Z,4984.00
2022-09-20T11:55:14.095Z,4852.00
2022-09-20T11:56:14.068Z,4808.00
2022-09-20T11:57:14.089Z,4192.00
2022-09-20T11:58:14.053Z,4152.00
2022-09-20T11:59:14.028Z,4084.00
2022-09-20T12:00:14.054Z,3860.00
2022-09-20T12:01:14.006Z,3780.00
2022-09-20T12:02:14.075Z,3760.00
2022-09-20T12:03:14.052Z,3760.00
2022-09-20T12:04:31.943Z,3712.00
2022-09-20T12:05:14.021Z,3688.00
2022-09-20T12:06:13.969Z,3692.00
2022-09-20T12:07:17.647Z,3440.00
2022-09-20T12:08:13.940Z,3712.00
2022-09-20T12:09:13.965Z,3716.00
2022-09-20T12:10:13.936Z,3712.00
2022-09-20T12:11:13.915Z,3704.00
2022-09-20T12:12:13.885Z,3692.00
2022-09-20T12:13:13.879Z,3680.00
2022-09-20T12:14:13.922Z,3676.00
2022-09-20T12:15:13.864Z,3664.00
2022-09-20T12:16:13.873Z,3632.00
2022-09-20T12:17:13.835Z,3612.00
2022-09-20T12:18:13.875Z,3576.00
2022-09-20T12:19:13.831Z,3556.00
2022-09-20T12:20:19.391Z,3552.00
2022-09-20T12:21:16.853Z,3548.00
2022-09-20T12:22:13.774Z,3548.00
2022-09-20T12:23:13.806Z,3560.00
2022-09-20T12:24:13.804Z,3588.00
2022-09-20T12:25:13.753Z,3668.00
2022-09-20T12:26:13.754Z,3740.00
2022-09-20T12:27:13.724Z,3856.00
2022-09-20T12:28:13.728Z,3992.00
2022-09-20T12:29:13.723Z,4112.00
2022-09-20T12:30:13.708Z,4384.00
2022-09-20T12:31:13.722Z,4520.00
2022-09-20T12:32:13.685Z,4608.00
2022-09-20T12:33:13.658Z,4780.00
2022-09-20T12:34:13.638Z,4828.00
2022-09-20T12:35:13.708Z,5152.00
2022-09-20T12:36:13.620Z,5296.00
2022-09-20T12:37:13.630Z,5252.00
2022-09-20T12:38:13.613Z,5148.00